Terminal Aerodrome Forecast
Issued by NWS

Home | Current Version | Previous Version | Text Only | Print | Product List | Glossary On
Versions: 1 2 3 4 5 6 7 8 9 10 11 12 13
000
FTUS46 KMTR 170542
TAFSJC
TAF
KSJC 170542Z 1706/1806 30005KT P6SM SKC
     FM171200 15005KT P6SM SCT015
      TEMPO 1712/1715 BKN015
     FM171600 12007KT P6SM SKC
     FM171900 VRB03KT P6SM SKC
     FM172100 30012KT P6SM SKC
     FM180400 30006KT P6SM SKC=

USA.gov is the U.S. government's official web portal to all federal, state and local government web resources and services.